sensor_id;sensor_type;location;lat;lon;timestamp;temperature;humidity
67893;DHT22;54688;52.376;16.744;2023-03-04T00:00:56;1.6;78.1
67893;DHT22;54688;52.376;16.744;2023-03-04T00:03:58;1.6;78.1
67893;DHT22;54688;52.376;16.744;2023-03-04T00:07:01;1.6;78
67893;DHT22;54688;52.376;16.744;2023-03-04T00:10:04;1.6;77.9
67893;DHT22;54688;52.376;16.744;2023-03-04T00:13:07;1.6;77.7
67893;DHT22;54688;52.376;16.744;2023-03-04T00:16:09;1.6;77.4
67893;DHT22;54688;52.376;16.744;2023-03-04T00:19:11;1.6;77.4
67893;DHT22;54688;52.376;16.744;2023-03-04T00:22:13;1.7;77.5
67893;DHT22;54688;52.376;16.744;2023-03-04T00:25:15;1.6;77.2
67893;DHT22;54688;52.376;16.744;2023-03-04T00:28:17;1.7;77.2
67893;DHT22;54688;52.376;16.744;2023-03-04T00:31:19;1.7;77
67893;DHT22;54688;52.376;16.744;2023-03-04T00:34:22;1.7;76.9
67893;DHT22;54688;52.376;16.744;2023-03-04T00:37:24;1.7;76.8
67893;DHT22;54688;52.376;16.744;2023-03-04T00:40:27;1.7;76.8
67893;DHT22;54688;52.376;16.744;2023-03-04T00:43:28;1.8;76.7
67893;DHT22;54688;52.376;16.744;2023-03-04T00:46:30;1.7;76.6
67893;DHT22;54688;52.376;16.744;2023-03-04T00:49:32;1.7;76.4
67893;DHT22;54688;52.376;16.744;2023-03-04T00:52:34;1.7;76.4
67893;DHT22;54688;52.376;16.744;2023-03-04T00:55:36;1.7;76.3
67893;DHT22;54688;52.376;16.744;2023-03-04T00:58:39;1.7;76.4
67893;DHT22;54688;52.376;16.744;2023-03-04T01:01:41;1.7;76.4
67893;DHT22;54688;52.376;16.744;2023-03-04T01:04:43;1.7;76.3
67893;DHT22;54688;52.376;16.744;2023-03-04T01:07:45;1.7;76.1
67893;DHT22;54688;52.376;16.744;2023-03-04T01:10:47;1.7;76
67893;DHT22;54688;52.376;16.744;2023-03-04T01:13:50;1.7;75.8
67893;DHT22;54688;52.376;16.744;2023-03-04T01:16:52;1.7;75.7
67893;DHT22;54688;52.376;16.744;2023-03-04T01:19:54;1.7;75.5
67893;DHT22;54688;52.376;16.744;2023-03-04T01:22:56;1.7;75.5
67893;DHT22;54688;52.376;16.744;2023-03-04T01:25:58;1.7;75.4
67893;DHT22;54688;52.376;16.744;2023-03-04T01:29:01;1.7;75.3
67893;DHT22;54688;52.376;16.744;2023-03-04T01:32:03;1.7;75.5
67893;DHT22;54688;52.376;16.744;2023-03-04T01:35:05;1.8;75.8
67893;DHT22;54688;52.376;16.744;2023-03-04T01:38:08;1.8;75.8
67893;DHT22;54688;52.376;16.744;2023-03-04T01:41:10;1.7;75.7
67893;DHT22;54688;52.376;16.744;2023-03-04T01:44:13;1.7;75.7
67893;DHT22;54688;52.376;16.744;2023-03-04T01:47:16;1.7;75.5
67893;DHT22;54688;52.376;16.744;2023-03-04T01:50:20;1.7;75.5
67893;DHT22;54688;52.376;16.744;2023-03-04T01:53:24;1.7;75.4
67893;DHT22;54688;52.376;16.744;2023-03-04T01:56:27;1.7;75.3
67893;DHT22;54688;52.376;16.744;2023-03-04T01:59:30;1.7;75.3
67893;DHT22;54688;52.376;16.744;2023-03-04T02:02:33;1.7;75.3
67893;DHT22;54688;52.376;16.744;2023-03-04T02:05:36;1.6;75.4
67893;DHT22;54688;52.376;16.744;2023-03-04T02:08:39;1.7;75.6
67893;DHT22;54688;52.376;16.744;2023-03-04T02:11:41;1.7;75.4
67893;DHT22;54688;52.376;16.744;2023-03-04T02:14:43;1.7;75.4
67893;DHT22;54688;52.376;16.744;2023-03-04T02:17:45;1.7;75.4
67893;DHT22;54688;52.376;16.744;2023-03-04T02:20:50;1.7;75.3
67893;DHT22;54688;52.376;16.744;2023-03-04T02:23:59;1.7;75.3
67893;DHT22;54688;52.376;16.744;2023-03-04T02:27:07;1.7;75
67893;DHT22;54688;52.376;16.744;2023-03-04T02:30:10;1.7;75.1
67893;DHT22;54688;52.376;16.744;2023-03-04T02:33:13;1.7;74.9
67893;DHT22;54688;52.376;16.744;2023-03-04T02:36:17;1.7;75
67893;DHT22;54688;52.376;16.744;2023-03-04T02:39:21;1.7;75
67893;DHT22;54688;52.376;16.744;2023-03-04T02:42:28;1.8;74.8
67893;DHT22;54688;52.376;16.744;2023-03-04T02:45:33;1.8;74.7
67893;DHT22;54688;52.376;16.744;2023-03-04T02:48:37;1.8;74.6
67893;DHT22;54688;52.376;16.744;2023-03-04T02:51:39;1.7;74.4
67893;DHT22;54688;52.376;16.744;2023-03-04T02:54:41;1.7;74.5
67893;DHT22;54688;52.376;16.744;2023-03-04T02:57:44;1.8;74.5
67893;DHT22;54688;52.376;16.744;2023-03-04T03:00:46;1.7;74.3
67893;DHT22;54688;52.376;16.744;2023-03-04T03:03:48;1.8;74.4
67893;DHT22;54688;52.376;16.744;2023-03-04T03:06:50;1.7;74.2
67893;DHT22;54688;52.376;16.744;2023-03-04T03:09:53;1.8;74.3
67893;DHT22;54688;52.376;16.744;2023-03-04T03:12:55;1.7;74.3
67893;DHT22;54688;52.376;16.744;2023-03-04T03:15:57;1.7;74.3
67893;DHT22;54688;52.376;16.744;2023-03-04T03:18:59;1.7;74.2
67893;DHT22;54688;52.376;16.744;2023-03-04T03:22:02;1.7;74.1
67893;DHT22;54688;52.376;16.744;2023-03-04T03:25:05;1.7;74.1
67893;DHT22;54688;52.376;16.744;2023-03-04T03:28:09;1.7;74
67893;DHT22;54688;52.376;16.744;2023-03-04T03:31:11;1.8;74.2
67893;DHT22;54688;52.376;16.744;2023-03-04T03:34:14;1.7;74.1
67893;DHT22;54688;52.376;16.744;2023-03-04T03:37:16;1.8;74
67893;DHT22;54688;52.376;16.744;2023-03-04T03:40:19;1.7;73.9
67893;DHT22;54688;52.376;16.744;2023-03-04T03:43:21;1.7;73.9
67893;DHT22;54688;52.376;16.744;2023-03-04T03:46:24;1.7;73.9
67893;DHT22;54688;52.376;16.744;2023-03-04T03:49:26;1.8;74
67893;DHT22;54688;52.376;16.744;2023-03-04T03:52:29;1.8;74
67893;DHT22;54688;52.376;16.744;2023-03-04T03:55:31;1.8;74.1
67893;DHT22;54688;52.376;16.744;2023-03-04T03:58:34;1.8;74
67893;DHT22;54688;52.376;16.744;2023-03-04T04:01:36;1.8;73.9
67893;DHT22;54688;52.376;16.744;2023-03-04T04:04:38;1.8;73.9
67893;DHT22;54688;52.376;16.744;2023-03-04T04:07:40;1.8;73.7
67893;DHT22;54688;52.376;16.744;2023-03-04T04:10:42;1.8;73.7
67893;DHT22;54688;52.376;16.744;2023-03-04T04:13:44;1.8;73.3
67893;DHT22;54688;52.376;16.744;2023-03-04T04:16:46;1.8;73.2
67893;DHT22;54688;52.376;16.744;2023-03-04T04:19:48;1.8;73.2
67893;DHT22;54688;52.376;16.744;2023-03-04T04:22:49;1.8;73
67893;DHT22;54688;52.376;16.744;2023-03-04T04:25:53;1.8;72.9
67893;DHT22;54688;52.376;16.744;2023-03-04T04:28:55;1.8;72.8
67893;DHT22;54688;52.376;16.744;2023-03-04T04:31:57;1.8;72.8
67893;DHT22;54688;52.376;16.744;2023-03-04T04:35:00;1.8;72.8
67893;DHT22;54688;52.376;16.744;2023-03-04T04:38:02;1.8;73.1
67893;DHT22;54688;52.376;16.744;2023-03-04T04:41:04;1.8;72.5
67893;DHT22;54688;52.376;16.744;2023-03-04T04:44:07;1.8;72.5
67893;DHT22;54688;52.376;16.744;2023-03-04T04:47:09;1.8;72.6
67893;DHT22;54688;52.376;16.744;2023-03-04T04:50:11;1.8;72.8
67893;DHT22;54688;52.376;16.744;2023-03-04T04:53:13;1.8;72.8
67893;DHT22;54688;52.376;16.744;2023-03-04T04:56:17;1.8;72.7
67893;DHT22;54688;52.376;16.744;2023-03-04T04:59:21;1.8;73.1
67893;DHT22;54688;52.376;16.744;2023-03-04T05:02:23;1.7;73.4
67893;DHT22;54688;52.376;16.744;2023-03-04T05:05:25;1.7;73.6
67893;DHT22;54688;52.376;16.744;2023-03-04T05:08:28;1.7;73.9
67893;DHT22;54688;52.376;16.744;2023-03-04T05:11:30;1.7;73.9
67893;DHT22;54688;52.376;16.744;2023-03-04T05:14:33;1.7;74
67893;DHT22;54688;52.376;16.744;2023-03-04T05:17:35;1.7;74.3
67893;DHT22;54688;52.376;16.744;2023-03-04T05:20:37;1.7;74.3
67893;DHT22;54688;52.376;16.744;2023-03-04T05:23:40;1.7;74.4
67893;DHT22;54688;52.376;16.744;2023-03-04T05:26:43;1.7;74.5
67893;DHT22;54688;52.376;16.744;2023-03-04T05:29:46;1.8;74.7
67893;DHT22;54688;52.376;16.744;2023-03-04T05:32:47;1.7;74.6
67893;DHT22;54688;52.376;16.744;2023-03-04T05:35:49;1.7;74.7
67893;DHT22;54688;52.376;16.744;2023-03-04T05:38:51;1.7;75
67893;DHT22;54688;52.376;16.744;2023-03-04T05:41:54;1.7;75
67893;DHT22;54688;52.376;16.744;2023-03-04T05:44:56;1.7;75
67893;DHT22;54688;52.376;16.744;2023-03-04T05:47:58;1.7;75.1
67893;DHT22;54688;52.376;16.744;2023-03-04T05:51:00;1.7;75.3
67893;DHT22;54688;52.376;16.744;2023-03-04T05:54:03;1.7;75.3
67893;DHT22;54688;52.376;16.744;2023-03-04T05:57:06;1.7;75.3
67893;DHT22;54688;52.376;16.744;2023-03-04T06:00:09;1.8;75.4
67893;DHT22;54688;52.376;16.744;2023-03-04T06:03:13;1.7;75.4
67893;DHT22;54688;52.376;16.744;2023-03-04T06:06:17;1.8;75.6
67893;DHT22;54688;52.376;16.744;2023-03-04T06:09:19;1.8;75.6
67893;DHT22;54688;52.376;16.744;2023-03-04T06:12:21;1.8;75.7
67893;DHT22;54688;52.376;16.744;2023-03-04T06:15:23;1.8;75.9
67893;DHT22;54688;52.376;16.744;2023-03-04T06:18:25;1.8;76
67893;DHT22;54688;52.376;16.744;2023-03-04T06:21:28;1.9;76.1
67893;DHT22;54688;52.376;16.744;2023-03-04T06:24:31;1.9;76.2
67893;DHT22;54688;52.376;16.744;2023-03-04T06:27:32;1.9;76.3
67893;DHT22;54688;52.376;16.744;2023-03-04T06:30:35;1.9;76.4
67893;DHT22;54688;52.376;16.744;2023-03-04T06:33:37;1.9;76.4
67893;DHT22;54688;52.376;16.744;2023-03-04T06:36:40;1.9;76.5
67893;DHT22;54688;52.376;16.744;2023-03-04T06:39:42;1.9;76.4
67893;DHT22;54688;52.376;16.744;2023-03-04T06:42:43;2;76.4
67893;DHT22;54688;52.376;16.744;2023-03-04T06:45:45;2;76.4
67893;DHT22;54688;52.376;16.744;2023-03-04T06:48:48;2;76.4
67893;DHT22;54688;52.376;16.744;2023-03-04T06:51:50;2.1;76.5
67893;DHT22;54688;52.376;16.744;2023-03-04T06:54:52;2.1;76.6
67893;DHT22;54688;52.376;16.744;2023-03-04T06:57:54;2.1;76.6
67893;DHT22;54688;52.376;16.744;2023-03-04T07:01:07;2.1;76.6
67893;DHT22;54688;52.376;16.744;2023-03-04T07:04:11;2.1;76.5
67893;DHT22;54688;52.376;16.744;2023-03-04T07:07:15;2.1;76.5
67893;DHT22;54688;52.376;16.744;2023-03-04T07:10:18;2.2;76.6
67893;DHT22;54688;52.376;16.744;2023-03-04T07:13:20;2.2;77.1
67893;DHT22;54688;52.376;16.744;2023-03-04T07:16:22;2.3;76.8
67893;DHT22;54688;52.376;16.744;2023-03-04T07:19:25;2.3;76.7
67893;DHT22;54688;52.376;16.744;2023-03-04T07:22:27;2.3;76.6
67893;DHT22;54688;52.376;16.744;2023-03-04T07:25:29;2.4;76.4
67893;DHT22;54688;52.376;16.744;2023-03-04T07:28:31;2.4;77.1
67893;DHT22;54688;52.376;16.744;2023-03-04T07:31:34;2.4;76.6
67893;DHT22;54688;52.376;16.744;2023-03-04T07:34:36;2.5;76.4
67893;DHT22;54688;52.376;16.744;2023-03-04T07:37:38;2.4;76.3
67893;DHT22;54688;52.376;16.744;2023-03-04T07:40:40;2.4;76.3
67893;DHT22;54688;52.376;16.744;2023-03-04T07:43:43;2.5;76.4
67893;DHT22;54688;52.376;16.744;2023-03-04T07:46:45;2.6;76.3
67893;DHT22;54688;52.376;16.744;2023-03-04T07:49:47;2.5;76.4
67893;DHT22;54688;52.376;16.744;2023-03-04T07:52:49;2.5;76.4
67893;DHT22;54688;52.376;16.744;2023-03-04T07:55:51;2.6;76.5
67893;DHT22;54688;52.376;16.744;2023-03-04T07:58:54;2.6;76.6
67893;DHT22;54688;52.376;16.744;2023-03-04T08:01:56;2.6;75.7
67893;DHT22;54688;52.376;16.744;2023-03-04T08:04:58;2.7;76.7
67893;DHT22;54688;52.376;16.744;2023-03-04T08:08:01;2.7;76.4
67893;DHT22;54688;52.376;16.744;2023-03-04T08:11:03;2.8;76.8
67893;DHT22;54688;52.376;16.744;2023-03-04T08:14:06;2.8;76.9
67893;DHT22;54688;52.376;16.744;2023-03-04T08:17:08;2.9;77.4
67893;DHT22;54688;52.376;16.744;2023-03-04T08:20:11;2.9;77.1
67893;DHT22;54688;52.376;16.744;2023-03-04T08:23:13;2.9;77.2
67893;DHT22;54688;52.376;16.744;2023-03-04T08:26:17;2.9;77.3
67893;DHT22;54688;52.376;16.744;2023-03-04T08:29:22;2.9;77.4
67893;DHT22;54688;52.376;16.744;2023-03-04T08:32:26;2.9;77.8
67893;DHT22;54688;52.376;16.744;2023-03-04T08:35:28;2.9;78.3
67893;DHT22;54688;52.376;16.744;2023-03-04T08:38:30;2.8;78.6
67893;DHT22;54688;52.376;16.744;2023-03-04T08:41:33;2.8;78.9
67893;DHT22;54688;52.376;16.744;2023-03-04T08:44:35;2.8;79.2
67893;DHT22;54688;52.376;16.744;2023-03-04T08:47:37;2.9;80
67893;DHT22;54688;52.376;16.744;2023-03-04T08:50:39;2.9;80.1
67893;DHT22;54688;52.376;16.744;2023-03-04T08:53:42;2.9;80.4
67893;DHT22;54688;52.376;16.744;2023-03-04T08:56:45;2.9;80.9
67893;DHT22;54688;52.376;16.744;2023-03-04T08:59:47;2.9;81.5
67893;DHT22;54688;52.376;16.744;2023-03-04T09:02:50;2.8;81.8
67893;DHT22;54688;52.376;16.744;2023-03-04T09:05:53;2.8;82.3
67893;DHT22;54688;52.376;16.744;2023-03-04T09:08:55;2.8;82.3
67893;DHT22;54688;52.376;16.744;2023-03-04T09:11:57;2.9;82.3
67893;DHT22;54688;52.376;16.744;2023-03-04T09:14:59;2.9;81.6
67893;DHT22;54688;52.376;16.744;2023-03-04T09:18:02;3;81.5
67893;DHT22;54688;52.376;16.744;2023-03-04T09:21:06;3;82.7
67893;DHT22;54688;52.376;16.744;2023-03-04T09:24:08;3;82.8
67893;DHT22;54688;52.376;16.744;2023-03-04T09:27:10;3.1;83.5
67893;DHT22;54688;52.376;16.744;2023-03-04T09:30:13;3.1;83.9
67893;DHT22;54688;52.376;16.744;2023-03-04T09:33:15;3.2;84.2
67893;DHT22;54688;52.376;16.744;2023-03-04T09:36:18;3.2;83.8
67893;DHT22;54688;52.376;16.744;2023-03-04T09:39:20;3.2;83.8
67893;DHT22;54688;52.376;16.744;2023-03-04T09:42:24;3.2;83.6
67893;DHT22;54688;52.376;16.744;2023-03-04T09:45:32;3.2;83.9
67893;DHT22;54688;52.376;16.744;2023-03-04T09:48:39;3.2;84.4
67893;DHT22;54688;52.376;16.744;2023-03-04T09:51:47;3.2;84.5
67893;DHT22;54688;52.376;16.744;2023-03-04T09:54:57;3.2;84.7
67893;DHT22;54688;52.376;16.744;2023-03-04T09:58:06;3.2;84.7
67893;DHT22;54688;52.376;16.744;2023-03-04T10:01:16;3.2;84.9
67893;DHT22;54688;52.376;16.744;2023-03-04T10:04:27;3.2;85.1
67893;DHT22;54688;52.376;16.744;2023-03-04T10:07:34;3.3;85.7
67893;DHT22;54688;52.376;16.744;2023-03-04T10:10:39;3.4;85.4
67893;DHT22;54688;52.376;16.744;2023-03-04T10:13:47;3.5;84.6
67893;DHT22;54688;52.376;16.744;2023-03-04T10:16:55;3.6;84.8
67893;DHT22;54688;52.376;16.744;2023-03-04T10:20:00;3.7;83.3
67893;DHT22;54688;52.376;16.744;2023-03-04T10:23:08;3.8;82.9
67893;DHT22;54688;52.376;16.744;2023-03-04T10:26:14;3.9;82.6
67893;DHT22;54688;52.376;16.744;2023-03-04T10:29:18;4.1;83
67893;DHT22;54688;52.376;16.744;2023-03-04T10:32:22;4.2;81.8
67893;DHT22;54688;52.376;16.744;2023-03-04T10:35:25;4.3;80.2
67893;DHT22;54688;52.376;16.744;2023-03-04T10:38:34;4.4;79.6
67893;DHT22;54688;52.376;16.744;2023-03-04T10:41:40;4.5;78.6
67893;DHT22;54688;52.376;16.744;2023-03-04T10:44:50;4.5;77.6
67893;DHT22;54688;52.376;16.744;2023-03-04T10:47:54;4.6;77.3
67893;DHT22;54688;52.376;16.744;2023-03-04T10:51:09;4.6;77.8
67893;DHT22;54688;52.376;16.744;2023-03-04T10:54:19;4.7;76.6
67893;DHT22;54688;52.376;16.744;2023-03-04T10:57:27;4.7;75.7
67893;DHT22;54688;52.376;16.744;2023-03-04T11:00:35;4.7;76.1
67893;DHT22;54688;52.376;16.744;2023-03-04T11:03:37;4.8;76.2
67893;DHT22;54688;52.376;16.744;2023-03-04T11:06:48;4.9;75
67893;DHT22;54688;52.376;16.744;2023-03-04T11:09:50;5;75.3
67893;DHT22;54688;52.376;16.744;2023-03-04T11:12:55;4.9;75.4
67893;DHT22;54688;52.376;16.744;2023-03-04T11:16:01;4.8;78.6
67893;DHT22;54688;52.376;16.744;2023-03-04T11:19:05;4.7;78.8
67893;DHT22;54688;52.376;16.744;2023-03-04T11:22:14;4.6;79.9
67893;DHT22;54688;52.376;16.744;2023-03-04T11:25:20;4.6;79.8
67893;DHT22;54688;52.376;16.744;2023-03-04T11:28:28;4.6;79
67893;DHT22;54688;52.376;16.744;2023-03-04T11:31:42;4.6;77.4
67893;DHT22;54688;52.376;16.744;2023-03-04T11:34:50;4.7;78.4
67893;DHT22;54688;52.376;16.744;2023-03-04T11:38:01;4.7;77.6
67893;DHT22;54688;52.376;16.744;2023-03-04T11:41:10;4.6;78
67893;DHT22;54688;52.376;16.744;2023-03-04T11:44:16;4.6;80
67893;DHT22;54688;52.376;16.744;2023-03-04T11:47:21;4.4;80.2
67893;DHT22;54688;52.376;16.744;2023-03-04T11:50:40;4.2;81.2
67893;DHT22;54688;52.376;16.744;2023-03-04T11:53:51;4.2;82.5
67893;DHT22;54688;52.376;16.744;2023-03-04T11:57:05;4.1;82.4
67893;DHT22;54688;52.376;16.744;2023-03-04T12:00:15;4;82.8
67893;DHT22;54688;52.376;16.744;2023-03-04T12:06:28;4;83.9
67893;DHT22;54688;52.376;16.744;2023-03-04T12:09:40;4.1;84.6
67893;DHT22;54688;52.376;16.744;2023-03-04T12:12:54;4.2;83.8
67893;DHT22;54688;52.376;16.744;2023-03-04T12:16:10;4.2;80.3
67893;DHT22;54688;52.376;16.744;2023-03-04T12:19:24;4.3;78.7
67893;DHT22;54688;52.376;16.744;2023-03-04T12:22:36;4.4;78.6
67893;DHT22;54688;52.376;16.744;2023-03-04T12:28:46;4.5;76.2
67893;DHT22;54688;52.376;16.744;2023-03-04T12:31:52;4.7;74.9
67893;DHT22;54688;52.376;16.744;2023-03-04T12:35:04;4.9;74.8
67893;DHT22;54688;52.376;16.744;2023-03-04T12:38:22;5.1;71.4
67893;DHT22;54688;52.376;16.744;2023-03-04T12:41:38;5.2;69.8
67893;DHT22;54688;52.376;16.744;2023-03-04T12:44:46;5.2;70.1
67893;DHT22;54688;52.376;16.744;2023-03-04T12:47:56;5.2;71.3
67893;DHT22;54688;52.376;16.744;2023-03-04T12:51:07;5.1;71.4
67893;DHT22;54688;52.376;16.744;2023-03-04T12:54:20;5.1;70.2
67893;DHT22;54688;52.376;16.744;2023-03-04T12:57:28;5;70.5
67893;DHT22;54688;52.376;16.744;2023-03-04T13:00:34;5;69.9
67893;DHT22;54688;52.376;16.744;2023-03-04T13:03:46;4.9;69.7
67893;DHT22;54688;52.376;16.744;2023-03-04T13:07:00;4.8;69.8
67893;DHT22;54688;52.376;16.744;2023-03-04T13:10:13;4.8;69.4
67893;DHT22;54688;52.376;16.744;2023-03-04T13:13:32;4.7;69.7
67893;DHT22;54688;52.376;16.744;2023-03-04T13:16:37;4.6;69.8
67893;DHT22;54688;52.376;16.744;2023-03-04T13:19:43;4.6;69
67893;DHT22;54688;52.376;16.744;2023-03-04T13:22:50;4.6;70.3
67893;DHT22;54688;52.376;16.744;2023-03-04T13:26:07;4.6;71.4
67893;DHT22;54688;52.376;16.744;2023-03-04T13:29:33;4.3;72.8
67893;DHT22;54688;52.376;16.744;2023-03-04T13:32:36;4;74.6
67893;DHT22;54688;52.376;16.744;2023-03-04T13:35:47;3.7;76.7
67893;DHT22;54688;52.376;16.744;2023-03-04T13:38:56;3.5;77.3
67893;DHT22;54688;52.376;16.744;2023-03-04T13:41:59;3.4;78
67893;DHT22;54688;52.376;16.744;2023-03-04T13:45:02;3.3;77.9
67893;DHT22;54688;52.376;16.744;2023-03-04T13:48:06;3.2;78.5
67893;DHT22;54688;52.376;16.744;2023-03-04T13:51:25;3.2;78.5
67893;DHT22;54688;52.376;16.744;2023-03-04T13:54:30;3.2;79.8
67893;DHT22;54688;52.376;16.744;2023-03-04T13:57:33;3.3;79.4
67893;DHT22;54688;52.376;16.744;2023-03-04T14:00:42;3.3;79.7
67893;DHT22;54688;52.376;16.744;2023-03-04T14:03:50;3.4;78.5
67893;DHT22;54688;52.376;16.744;2023-03-04T14:06:52;3.4;78.4
67893;DHT22;54688;52.376;16.744;2023-03-04T14:09:57;3.5;78.6
67893;DHT22;54688;52.376;16.744;2023-03-04T14:13:00;3.6;78.4
67893;DHT22;54688;52.376;16.744;2023-03-04T14:16:02;3.7;77.3
67893;DHT22;54688;52.376;16.744;2023-03-04T14:19:05;3.7;77.2
67893;DHT22;54688;52.376;16.744;2023-03-04T14:22:23;3.8;76
67893;DHT22;54688;52.376;16.744;2023-03-04T14:25:27;3.9;75.3
67893;DHT22;54688;52.376;16.744;2023-03-04T14:28:30;4.1;75
67893;DHT22;54688;52.376;16.744;2023-03-04T14:31:33;4.2;73.2
67893;DHT22;54688;52.376;16.744;2023-03-04T14:34:37;4.2;72.1
67893;DHT22;54688;52.376;16.744;2023-03-04T14:40:39;4.1;69.5
67893;DHT22;54688;52.376;16.744;2023-03-04T14:43:45;4.1;68.4
67893;DHT22;54688;52.376;16.744;2023-03-04T14:46:54;4;69.8
67893;DHT22;54688;52.376;16.744;2023-03-04T14:50:02;4;68.9
67893;DHT22;54688;52.376;16.744;2023-03-04T14:53:13;3.9;68.5
67893;DHT22;54688;52.376;16.744;2023-03-04T14:56:25;3.8;68
67893;DHT22;54688;52.376;16.744;2023-03-04T14:59:29;3.7;67.9
67893;DHT22;54688;52.376;16.744;2023-03-04T15:02:34;3.7;68.9
67893;DHT22;54688;52.376;16.744;2023-03-04T15:05:40;3.7;68.4
67893;DHT22;54688;52.376;16.744;2023-03-04T15:08:43;3.7;67.6
67893;DHT22;54688;52.376;16.744;2023-03-04T15:11:46;3.7;67.3
67893;DHT22;54688;52.376;16.744;2023-03-04T15:14:51;3.6;66.8
67893;DHT22;54688;52.376;16.744;2023-03-04T15:17:56;3.6;66.9
67893;DHT22;54688;52.376;16.744;2023-03-04T15:21:00;3.6;66.9
67893;DHT22;54688;52.376;16.744;2023-03-04T15:24:05;3.5;67.7
67893;DHT22;54688;52.376;16.744;2023-03-04T15:27:11;3.5;67.7
67893;DHT22;54688;52.376;16.744;2023-03-04T15:30:15;3.4;66.9
67893;DHT22;54688;52.376;16.744;2023-03-04T15:33:19;3.4;68
67893;DHT22;54688;52.376;16.744;2023-03-04T15:36:22;3.3;68.4
67893;DHT22;54688;52.376;16.744;2023-03-04T15:39:25;3.3;69
67893;DHT22;54688;52.376;16.744;2023-03-04T15:42:27;3.2;69.3
67893;DHT22;54688;52.376;16.744;2023-03-04T15:45:30;3.1;68.8
67893;DHT22;54688;52.376;16.744;2023-03-04T15:48:33;3.1;70
67893;DHT22;54688;52.376;16.744;2023-03-04T15:51:35;3;69.5
67893;DHT22;54688;52.376;16.744;2023-03-04T15:54:37;3;69.7
67893;DHT22;54688;52.376;16.744;2023-03-04T15:57:39;3;69.9
67893;DHT22;54688;52.376;16.744;2023-03-04T16:00:41;2.9;69.6
67893;DHT22;54688;52.376;16.744;2023-03-04T16:03:43;2.9;69.9
67893;DHT22;54688;52.376;16.744;2023-03-04T16:06:46;2.8;70.2
67893;DHT22;54688;52.376;16.744;2023-03-04T16:09:51;2.7;71.2
67893;DHT22;54688;52.376;16.744;2023-03-04T16:12:56;2.7;71.3
67893;DHT22;54688;52.376;16.744;2023-03-04T16:15:59;2.6;70.6
67893;DHT22;54688;52.376;16.744;2023-03-04T16:19:01;2.5;71.2
67893;DHT22;54688;52.376;16.744;2023-03-04T16:22:03;2.4;70.8
67893;DHT22;54688;52.376;16.744;2023-03-04T16:25:08;2.4;71.7
67893;DHT22;54688;52.376;16.744;2023-03-04T16:28:13;2.3;71.6
67893;DHT22;54688;52.376;16.744;2023-03-04T16:31:15;2.2;71.8
67893;DHT22;54688;52.376;16.744;2023-03-04T16:34:17;2.1;71.8
67893;DHT22;54688;52.376;16.744;2023-03-04T16:37:20;2.1;72.2
67893;DHT22;54688;52.376;16.744;2023-03-04T16:40:24;2;72.5
67893;DHT22;54688;52.376;16.744;2023-03-04T16:43:28;1.9;73.4
67893;DHT22;54688;52.376;16.744;2023-03-04T16:46:30;1.9;73.7
67893;DHT22;54688;52.376;16.744;2023-03-04T16:49:32;1.8;73.8
67893;DHT22;54688;52.376;16.744;2023-03-04T16:52:34;1.7;74.1
67893;DHT22;54688;52.376;16.744;2023-03-04T16:55:37;1.6;73.7
67893;DHT22;54688;52.376;16.744;2023-03-04T16:58:39;1.6;73.8
67893;DHT22;54688;52.376;16.744;2023-03-04T17:04:41;1.4;73
67893;DHT22;54688;52.376;16.744;2023-03-04T17:07:43;1.3;73.1
67893;DHT22;54688;52.376;16.744;2023-03-04T17:10:45;1.3;72.7
67893;DHT22;54688;52.376;16.744;2023-03-04T17:13:48;1.2;72.5
67893;DHT22;54688;52.376;16.744;2023-03-04T17:16:51;1.2;71.8
67893;DHT22;54688;52.376;16.744;2023-03-04T17:19:52;1.2;71.2
67893;DHT22;54688;52.376;16.744;2023-03-04T17:22:55;1.1;70.5
67893;DHT22;54688;52.376;16.744;2023-03-04T17:25:57;1.1;70.2
67893;DHT22;54688;52.376;16.744;2023-03-04T17:29:00;1;69.5
67893;DHT22;54688;52.376;16.744;2023-03-04T17:32:02;0.9;68.4
67893;DHT22;54688;52.376;16.744;2023-03-04T17:35:05;0.9;67.6
67893;DHT22;54688;52.376;16.744;2023-03-04T17:38:08;0.8;67.4
67893;DHT22;54688;52.376;16.744;2023-03-04T17:41:11;0.8;67.4
67893;DHT22;54688;52.376;16.744;2023-03-04T17:44:14;0.7;66.8
67893;DHT22;54688;52.376;16.744;2023-03-04T17:47:16;0.7;66.2
67893;DHT22;54688;52.376;16.744;2023-03-04T17:50:18;0.6;65.8
67893;DHT22;54688;52.376;16.744;2023-03-04T17:53:20;0.6;65
67893;DHT22;54688;52.376;16.744;2023-03-04T17:56:22;0.6;64.7
67893;DHT22;54688;52.376;16.744;2023-03-04T17:59:24;0.5;65.8
67893;DHT22;54688;52.376;16.744;2023-03-04T18:02:26;0.5;65
67893;DHT22;54688;52.376;16.744;2023-03-04T18:05:27;0.4;64.8
67893;DHT22;54688;52.376;16.744;2023-03-04T18:08:30;0.3;64.7
67893;DHT22;54688;52.376;16.744;2023-03-04T18:11:33;0.3;64.9
67893;DHT22;54688;52.376;16.744;2023-03-04T18:14:36;0.2;63.3
67893;DHT22;54688;52.376;16.744;2023-03-04T18:17:38;0.2;63.7
67893;DHT22;54688;52.376;16.744;2023-03-04T18:20:40;0.2;63
67893;DHT22;54688;52.376;16.744;2023-03-04T18:23:42;0.1;62.6
67893;DHT22;54688;52.376;16.744;2023-03-04T18:26:45;0.1;62.3
67893;DHT22;54688;52.376;16.744;2023-03-04T18:29:47;0.1;61.7
67893;DHT22;54688;52.376;16.744;2023-03-04T18:32:49;0;62.4
67893;DHT22;54688;52.376;16.744;2023-03-04T18:35:55;-0.1;62.4
67893;DHT22;54688;52.376;16.744;2023-03-04T18:41:58;-0.2;62.6
67893;DHT22;54688;52.376;16.744;2023-03-04T18:45:00;-0.3;61.7
67893;DHT22;54688;52.376;16.744;2023-03-04T18:48:02;-0.3;61
67893;DHT22;54688;52.376;16.744;2023-03-04T18:51:05;-0.4;61.9
67893;DHT22;54688;52.376;16.744;2023-03-04T18:54:07;-0.4;62.2
67893;DHT22;54688;52.376;16.744;2023-03-04T18:57:10;-0.5;62
67893;DHT22;54688;52.376;16.744;2023-03-04T19:00:14;-0.6;61
67893;DHT22;54688;52.376;16.744;2023-03-04T19:03:19;-0.6;61
67893;DHT22;54688;52.376;16.744;2023-03-04T19:06:21;-0.7;60.9
67893;DHT22;54688;52.376;16.744;2023-03-04T19:09:23;-0.7;61.3
67893;DHT22;54688;52.376;16.744;2023-03-04T19:12:25;-0.8;61.7
67893;DHT22;54688;52.376;16.744;2023-03-04T19:15:27;-0.8;62.5
67893;DHT22;54688;52.376;16.744;2023-03-04T19:18:30;-0.8;62.3
67893;DHT22;54688;52.376;16.744;2023-03-04T19:21:32;-0.8;63.3
67893;DHT22;54688;52.376;16.744;2023-03-04T19:24:39;-0.9;62.9
67893;DHT22;54688;52.376;16.744;2023-03-04T19:27:40;-0.9;62.7
67893;DHT22;54688;52.376;16.744;2023-03-04T19:30:43;-1;62.5
67893;DHT22;54688;52.376;16.744;2023-03-04T19:33:46;-1;63.4
67893;DHT22;54688;52.376;16.744;2023-03-04T19:36:48;-1.1;63.1
67893;DHT22;54688;52.376;16.744;2023-03-04T19:39:51;-1.1;64.3
67893;DHT22;54688;52.376;16.744;2023-03-04T19:42:52;-1.2;64.6
67893;DHT22;54688;52.376;16.744;2023-03-04T19:45:55;-1.2;64.9
67893;DHT22;54688;52.376;16.744;2023-03-04T19:48:59;-1.3;65.2
67893;DHT22;54688;52.376;16.744;2023-03-04T19:52:02;-1.4;64.1
67893;DHT22;54688;52.376;16.744;2023-03-04T19:55:05;-1.4;64.9
67893;DHT22;54688;52.376;16.744;2023-03-04T19:58:07;-1.5;64.6
67893;DHT22;54688;52.376;16.744;2023-03-04T20:01:18;-1.5;64.2
67893;DHT22;54688;52.376;16.744;2023-03-04T20:04:22;-1.5;64.2
67893;DHT22;54688;52.376;16.744;2023-03-04T20:07:24;-1.5;66.2
67893;DHT22;54688;52.376;16.744;2023-03-04T20:10:29;-1.6;66.5
67893;DHT22;54688;52.376;16.744;2023-03-04T20:13:32;-1.5;65.7
67893;DHT22;54688;52.376;16.744;2023-03-04T20:16:33;-1.6;64.5
67893;DHT22;54688;52.376;16.744;2023-03-04T20:19:35;-1.7;64.5